sensor_id;sensor_type;location;lat;lon;timestamp;temperature;humidity
37410;DHT22;23275;48.914;12.566;2022-09-09T00:04:29;14.30;99.90
37410;DHT22;23275;48.914;12.566;2022-09-09T00:15:23;14.10;99.90
37410;DHT22;23275;48.914;12.566;2022-09-09T00:17:59;14.00;99.90
37410;DHT22;23275;48.914;12.566;2022-09-09T00:20:42;13.90;99.90
37410;DHT22;23275;48.914;12.566;2022-09-09T00:23:29;13.80;99.90
37410;DHT22;23275;48.914;12.566;2022-09-09T00:26:16;13.90;99.90
37410;DHT22;23275;48.914;12.566;2022-09-09T00:31:26;13.90;99.90
37410;DHT22;23275;48.914;12.566;2022-09-09T00:33:53;13.90;99.90
37410;DHT22;23275;48.914;12.566;2022-09-09T00:36:24;13.80;99.90
37410;DHT22;23275;48.914;12.566;2022-09-09T00:38:56;13.80;99.90
37410;DHT22;23275;48.914;12.566;2022-09-09T00:41:26;13.70;99.90
37410;DHT22;23275;48.914;12.566;2022-09-09T00:44:30;13.70;99.90
37410;DHT22;23275;48.914;12.566;2022-09-09T00:49:46;13.50;99.90
37410;DHT22;23275;48.914;12.566;2022-09-09T00:57:35;13.40;99.90
37410;DHT22;23275;48.914;12.566;2022-09-09T01:00:24;13.50;99.90
37410;DHT22;23275;48.914;12.566;2022-09-09T01:06:02;13.50;99.90
37410;DHT22;23275;48.914;12.566;2022-09-09T01:09:00;13.50;99.90
37410;DHT22;23275;48.914;12.566;2022-09-09T01:27:40;13.40;99.90
37410;DHT22;23275;48.914;12.566;2022-09-09T01:30:11;13.40;99.90
37410;DHT22;23275;48.914;12.566;2022-09-09T01:32:44;13.30;99.90
37410;DHT22;23275;48.914;12.566;2022-09-09T01:35:29;13.30;99.90
37410;DHT22;23275;48.914;12.566;2022-09-09T01:37:57;13.30;99.90
37410;DHT22;23275;48.914;12.566;2022-09-09T01:40:23;13.30;99.90
37410;DHT22;23275;48.914;12.566;2022-09-09T01:42:49;13.30;99.90
37410;DHT22;23275;48.914;12.566;2022-09-09T01:45:15;13.30;99.90
37410;DHT22;23275;48.914;12.566;2022-09-09T01:47:41;13.30;99.90
37410;DHT22;23275;48.914;12.566;2022-09-09T01:50:08;13.20;99.90
37410;DHT22;23275;48.914;12.566;2022-09-09T01:52:37;13.20;99.90
37410;DHT22;23275;48.914;12.566;2022-09-09T01:55:04;13.20;99.90
37410;DHT22;23275;48.914;12.566;2022-09-09T02:00:24;13.10;99.90
37410;DHT22;23275;48.914;12.566;2022-09-09T02:05:48;13.10;99.90
37410;DHT22;23275;48.914;12.566;2022-09-09T02:08:20;13.10;99.90
37410;DHT22;23275;48.914;12.566;2022-09-09T02:10:54;13.10;99.90
37410;DHT22;23275;48.914;12.566;2022-09-09T02:13:22;13.10;99.90
37410;DHT22;23275;48.914;12.566;2022-09-09T02:15:56;13.20;99.90
37410;DHT22;23275;48.914;12.566;2022-09-09T02:18:33;13.10;99.90
37410;DHT22;23275;48.914;12.566;2022-09-09T02:21:00;13.20;99.90
37410;DHT22;23275;48.914;12.566;2022-09-09T02:23:27;13.20;99.90
37410;DHT22;23275;48.914;12.566;2022-09-09T02:25:55;13.10;99.90
37410;DHT22;23275;48.914;12.566;2022-09-09T02:28:24;13.10;99.90
37410;DHT22;23275;48.914;12.566;2022-09-09T02:30:51;13.10;99.90
37410;DHT22;23275;48.914;12.566;2022-09-09T02:33:24;13.10;99.90
37410;DHT22;23275;48.914;12.566;2022-09-09T02:35:53;13.20;99.90
37410;DHT22;23275;48.914;12.566;2022-09-09T02:38:25;13.20;99.90
37410;DHT22;23275;48.914;12.566;2022-09-09T02:40:51;13.20;99.90
37410;DHT22;23275;48.914;12.566;2022-09-09T02:43:17;13.20;99.90
37410;DHT22;23275;48.914;12.566;2022-09-09T02:46:03;13.20;99.90
37410;DHT22;23275;48.914;12.566;2022-09-09T02:48:40;13.20;99.90
37410;DHT22;23275;48.914;12.566;2022-09-09T02:51:21;13.20;99.90
37410;DHT22;23275;48.914;12.566;2022-09-09T02:54:16;13.20;99.90
37410;DHT22;23275;48.914;12.566;2022-09-09T02:56:48;13.20;99.90
37410;DHT22;23275;48.914;12.566;2022-09-09T02:59:16;13.20;99.90
37410;DHT22;23275;48.914;12.566;2022-09-09T03:01:41;13.20;99.90
37410;DHT22;23275;48.914;12.566;2022-09-09T03:04:07;13.10;99.90
37410;DHT22;23275;48.914;12.566;2022-09-09T03:06:33;13.10;99.90
37410;DHT22;23275;48.914;12.566;2022-09-09T03:08:58;13.10;99.90
37410;DHT22;23275;48.914;12.566;2022-09-09T03:11:27;13.10;99.90
37410;DHT22;23275;48.914;12.566;2022-09-09T03:13:53;13.00;99.90
37410;DHT22;23275;48.914;12.566;2022-09-09T03:16:20;13.00;99.90
37410;DHT22;23275;48.914;12.566;2022-09-09T03:18:46;13.00;99.90
37410;DHT22;23275;48.914;12.566;2022-09-09T03:21:12;13.00;99.90
37410;DHT22;23275;48.914;12.566;2022-09-09T03:23:37;13.00;99.90
37410;DHT22;23275;48.914;12.566;2022-09-09T03:26:03;13.00;99.90
37410;DHT22;23275;48.914;12.566;2022-09-09T03:28:29;13.00;99.90
37410;DHT22;23275;48.914;12.566;2022-09-09T03:31:04;13.00;99.90
37410;DHT22;23275;48.914;12.566;2022-09-09T03:33:30;12.90;99.90
37410;DHT22;23275;48.914;12.566;2022-09-09T03:35:56;12.90;99.90
37410;DHT22;23275;48.914;12.566;2022-09-09T03:38:23;12.90;99.90
37410;DHT22;23275;48.914;12.566;2022-09-09T03:40:53;12.90;99.90
37410;DHT22;23275;48.914;12.566;2022-09-09T03:43:27;12.90;99.90
37410;DHT22;23275;48.914;12.566;2022-09-09T03:45:53;12.80;99.90
37410;DHT22;23275;48.914;12.566;2022-09-09T03:48:22;12.80;99.90
37410;DHT22;23275;48.914;12.566;2022-09-09T03:50:51;12.90;99.90
37410;DHT22;23275;48.914;12.566;2022-09-09T03:53:19;12.80;99.90
37410;DHT22;23275;48.914;12.566;2022-09-09T03:55:46;12.80;99.90
37410;DHT22;23275;48.914;12.566;2022-09-09T03:58:13;12.80;99.90
37410;DHT22;23275;48.914;12.566;2022-09-09T04:00:39;12.80;99.90
37410;DHT22;23275;48.914;12.566;2022-09-09T04:03:11;12.80;99.90
37410;DHT22;23275;48.914;12.566;2022-09-09T04:05:39;12.80;99.90
37410;DHT22;23275;48.914;12.566;2022-09-09T04:08:08;12.80;99.90
37410;DHT22;23275;48.914;12.566;2022-09-09T04:10:34;12.70;99.90
37410;DHT22;23275;48.914;12.566;2022-09-09T04:13:05;12.80;99.90
37410;DHT22;23275;48.914;12.566;2022-09-09T04:15:32;12.70;99.90
37410;DHT22;23275;48.914;12.566;2022-09-09T04:17:57;12.70;99.90
37410;DHT22;23275;48.914;12.566;2022-09-09T04:20:23;12.70;99.90
37410;DHT22;23275;48.914;12.566;2022-09-09T04:22:48;12.60;99.90
37410;DHT22;23275;48.914;12.566;2022-09-09T04:25:14;12.60;99.90
37410;DHT22;23275;48.914;12.566;2022-09-09T04:27:40;12.50;99.90
37410;DHT22;23275;48.914;12.566;2022-09-09T04:30:06;12.40;99.90
37410;DHT22;23275;48.914;12.566;2022-09-09T04:32:33;12.40;99.90
37410;DHT22;23275;48.914;12.566;2022-09-09T04:34:59;12.40;99.90
37410;DHT22;23275;48.914;12.566;2022-09-09T04:37:24;12.40;99.90
37410;DHT22;23275;48.914;12.566;2022-09-09T04:39:50;12.40;99.90
37410;DHT22;23275;48.914;12.566;2022-09-09T04:42:16;12.40;99.90
37410;DHT22;23275;48.914;12.566;2022-09-09T04:44:43;12.40;99.90
37410;DHT22;23275;48.914;12.566;2022-09-09T04:47:09;12.40;99.90
37410;DHT22;23275;48.914;12.566;2022-09-09T04:49:35;12.40;99.90
37410;DHT22;23275;48.914;12.566;2022-09-09T04:52:02;12.40;99.90
37410;DHT22;23275;48.914;12.566;2022-09-09T04:54:28;12.50;99.90
37410;DHT22;23275;48.914;12.566;2022-09-09T04:56:54;12.50;99.90
37410;DHT22;23275;48.914;12.566;2022-09-09T04:59:20;12.50;99.90
37410;DHT22;23275;48.914;12.566;2022-09-09T05:01:47;12.60;99.90
37410;DHT22;23275;48.914;12.566;2022-09-09T05:04:12;12.60;99.90
37410;DHT22;23275;48.914;12.566;2022-09-09T05:06:40;12.60;99.90
37410;DHT22;23275;48.914;12.566;2022-09-09T05:09:06;12.60;99.90
37410;DHT22;23275;48.914;12.566;2022-09-09T05:11:32;12.60;99.90
37410;DHT22;23275;48.914;12.566;2022-09-09T05:13:59;12.60;99.90
37410;DHT22;23275;48.914;12.566;2022-09-09T05:16:26;12.60;99.90
37410;DHT22;23275;48.914;12.566;2022-09-09T05:18:51;12.60;99.90
37410;DHT22;23275;48.914;12.566;2022-09-09T05:21:18;12.70;99.90
37410;DHT22;23275;48.914;12.566;2022-09-09T05:23:45;12.80;99.90
37410;DHT22;23275;48.914;12.566;2022-09-09T05:26:16;12.80;99.90
37410;DHT22;23275;48.914;12.566;2022-09-09T05:28:42;12.80;99.90
37410;DHT22;23275;48.914;12.566;2022-09-09T05:31:09;12.80;99.90
37410;DHT22;23275;48.914;12.566;2022-09-09T05:33:37;12.80;99.90
37410;DHT22;23275;48.914;12.566;2022-09-09T05:36:07;12.90;99.90
37410;DHT22;23275;48.914;12.566;2022-09-09T05:38:34;12.90;99.90
37410;DHT22;23275;48.914;12.566;2022-09-09T05:41:02;13.00;99.90
37410;DHT22;23275;48.914;12.566;2022-09-09T05:43:28;12.90;99.90
37410;DHT22;23275;48.914;12.566;2022-09-09T05:46:05;12.90;99.90
37410;DHT22;23275;48.914;12.566;2022-09-09T05:48:32;13.00;99.90
37410;DHT22;23275;48.914;12.566;2022-09-09T05:50:59;13.00;99.90
37410;DHT22;23275;48.914;12.566;2022-09-09T05:53:28;13.00;99.90
37410;DHT22;23275;48.914;12.566;2022-09-09T05:56:02;13.00;99.90
37410;DHT22;23275;48.914;12.566;2022-09-09T05:58:29;13.00;99.90
37410;DHT22;23275;48.914;12.566;2022-09-09T06:01:06;13.00;99.90
37410;DHT22;23275;48.914;12.566;2022-09-09T06:03:36;13.00;99.90
37410;DHT22;23275;48.914;12.566;2022-09-09T06:06:06;13.10;99.90
37410;DHT22;23275;48.914;12.566;2022-09-09T06:08:35;13.20;99.90
37410;DHT22;23275;48.914;12.566;2022-09-09T06:11:07;13.30;99.90
37410;DHT22;23275;48.914;12.566;2022-09-09T06:13:32;13.50;99.90
37410;DHT22;23275;48.914;12.566;2022-09-09T06:15:58;13.60;99.90
37410;DHT22;23275;48.914;12.566;2022-09-09T06:18:25;13.70;99.90
37410;DHT22;23275;48.914;12.566;2022-09-09T06:20:59;14.00;99.90
37410;DHT22;23275;48.914;12.566;2022-09-09T06:23:26;14.10;99.90
37410;DHT22;23275;48.914;12.566;2022-09-09T06:26:07;14.20;99.90
37410;DHT22;23275;48.914;12.566;2022-09-09T06:28:34;14.20;99.90
37410;DHT22;23275;48.914;12.566;2022-09-09T06:31:01;14.30;99.90
37410;DHT22;23275;48.914;12.566;2022-09-09T06:33:31;14.50;99.90
37410;DHT22;23275;48.914;12.566;2022-09-09T06:36:00;14.80;99.90
37410;DHT22;23275;48.914;12.566;2022-09-09T06:38:26;15.20;99.90
37410;DHT22;23275;48.914;12.566;2022-09-09T06:40:55;15.30;99.90
37410;DHT22;23275;48.914;12.566;2022-09-09T06:43:22;15.50;99.90
37410;DHT22;23275;48.914;12.566;2022-09-09T06:45:59;15.60;99.90
37410;DHT22;23275;48.914;12.566;2022-09-09T06:48:27;15.70;99.90
37410;DHT22;23275;48.914;12.566;2022-09-09T06:51:10;15.80;99.90
37410;DHT22;23275;48.914;12.566;2022-09-09T06:53:41;15.90;99.90
37410;DHT22;23275;48.914;12.566;2022-09-09T06:58:36;16.00;99.90
37410;DHT22;23275;48.914;12.566;2022-09-09T07:01:06;16.00;99.90
37410;DHT22;23275;48.914;12.566;2022-09-09T07:03:33;16.00;99.90
37410;DHT22;23275;48.914;12.566;2022-09-09T07:05:59;16.00;99.90
37410;DHT22;23275;48.914;12.566;2022-09-09T07:08:25;16.00;99.90
37410;DHT22;23275;48.914;12.566;2022-09-09T07:10:52;16.20;99.90
37410;DHT22;23275;48.914;12.566;2022-09-09T07:13:24;16.40;99.90
37410;DHT22;23275;48.914;12.566;2022-09-09T07:15:51;16.80;99.90
37410;DHT22;23275;48.914;12.566;2022-09-09T07:18:17;17.20;99.90
37410;DHT22;23275;48.914;12.566;2022-09-09T07:20:43;17.30;99.90
37410;DHT22;23275;48.914;12.566;2022-09-09T07:23:08;17.60;99.90
37410;DHT22;23275;48.914;12.566;2022-09-09T07:25:34;17.70;99.90
37410;DHT22;23275;48.914;12.566;2022-09-09T07:28:00;17.80;99.90
37410;DHT22;23275;48.914;12.566;2022-09-09T07:30:25;17.30;99.90
37410;DHT22;23275;48.914;12.566;2022-09-09T07:32:51;16.80;99.90
37410;DHT22;23275;48.914;12.566;2022-09-09T07:35:17;16.20;99.90
37410;DHT22;23275;48.914;12.566;2022-09-09T07:37:43;15.90;99.90
37410;DHT22;23275;48.914;12.566;2022-09-09T07:40:10;15.80;99.90
37410;DHT22;23275;48.914;12.566;2022-09-09T07:42:35;16.10;99.90
37410;DHT22;23275;48.914;12.566;2022-09-09T07:45:03;16.60;99.90
37410;DHT22;23275;48.914;12.566;2022-09-09T07:47:29;17.20;99.90
37410;DHT22;23275;48.914;12.566;2022-09-09T07:49:54;17.50;99.90
37410;DHT22;23275;48.914;12.566;2022-09-09T07:52:21;17.70;99.90
37410;DHT22;23275;48.914;12.566;2022-09-09T07:54:46;18.00;99.90
37410;DHT22;23275;48.914;12.566;2022-09-09T07:57:12;18.20;99.90
37410;DHT22;23275;48.914;12.566;2022-09-09T07:59:38;18.50;99.90
37410;DHT22;23275;48.914;12.566;2022-09-09T08:02:04;18.80;99.90
37410;DHT22;23275;48.914;12.566;2022-09-09T08:04:29;19.10;99.90
37410;DHT22;23275;48.914;12.566;2022-09-09T08:06:57;19.40;99.90
37410;DHT22;23275;48.914;12.566;2022-09-09T08:09:24;19.90;99.90
37410;DHT22;23275;48.914;12.566;2022-09-09T08:11:52;20.30;99.90
37410;DHT22;23275;48.914;12.566;2022-09-09T08:14:18;20.70;99.90
37410;DHT22;23275;48.914;12.566;2022-09-09T08:16:46;20.60;99.90
37410;DHT22;23275;48.914;12.566;2022-09-09T08:19:12;20.30;99.90
37410;DHT22;23275;48.914;12.566;2022-09-09T08:21:39;19.80;99.90
37410;DHT22;23275;48.914;12.566;2022-09-09T08:24:06;19.30;99.90
37410;DHT22;23275;48.914;12.566;2022-09-09T08:26:34;18.90;99.90
37410;DHT22;23275;48.914;12.566;2022-09-09T08:29:01;18.40;99.90
37410;DHT22;23275;48.914;12.566;2022-09-09T08:31:38;17.90;99.90
37410;DHT22;23275;48.914;12.566;2022-09-09T08:34:05;17.90;99.90
37410;DHT22;23275;48.914;12.566;2022-09-09T08:36:34;17.70;99.90
37410;DHT22;23275;48.914;12.566;2022-09-09T08:39:00;17.70;99.90
37410;DHT22;23275;48.914;12.566;2022-09-09T08:44:26;17.60;99.90
37410;DHT22;23275;48.914;12.566;2022-09-09T08:55:47;17.90;99.90
37410;DHT22;23275;48.914;12.566;2022-09-09T08:58:24;17.80;99.90
37410;DHT22;23275;48.914;12.566;2022-09-09T09:12:39;17.40;99.90
37410;DHT22;23275;48.914;12.566;2022-09-09T09:15:18;17.40;99.90
37410;DHT22;23275;48.914;12.566;2022-09-09T09:17:44;17.30;99.90
37410;DHT22;23275;48.914;12.566;2022-09-09T09:20:14;17.20;99.90
37410;DHT22;23275;48.914;12.566;2022-09-09T09:22:48;17.20;99.90
37410;DHT22;23275;48.914;12.566;2022-09-09T09:25:41;17.00;99.90
37410;DHT22;23275;48.914;12.566;2022-09-09T09:28:25;17.00;99.90
37410;DHT22;23275;48.914;12.566;2022-09-09T09:31:12;17.00;99.90
37410;DHT22;23275;48.914;12.566;2022-09-09T09:33:51;17.00;99.90
37410;DHT22;23275;48.914;12.566;2022-09-09T09:36:19;17.00;99.90
37410;DHT22;23275;48.914;12.566;2022-09-09T09:38:59;17.00;99.90
37410;DHT22;23275;48.914;12.566;2022-09-09T09:41:42;17.00;99.90
37410;DHT22;23275;48.914;12.566;2022-09-09T09:44:28;17.00;99.90
37410;DHT22;23275;48.914;12.566;2022-09-09T09:47:07;17.00;99.90
37410;DHT22;23275;48.914;12.566;2022-09-09T09:49:33;17.00;99.90
37410;DHT22;23275;48.914;12.566;2022-09-09T09:52:06;17.00;99.90
37410;DHT22;23275;48.914;12.566;2022-09-09T09:54:41;16.90;99.90
37410;DHT22;23275;48.914;12.566;2022-09-09T09:57:16;16.80;99.90
37410;DHT22;23275;48.914;12.566;2022-09-09T09:59:43;16.70;99.90
37410;DHT22;23275;48.914;12.566;2022-09-09T10:02:21;16.60;99.90
37410;DHT22;23275;48.914;12.566;2022-09-09T10:05:04;16.40;99.90
37410;DHT22;23275;48.914;12.566;2022-09-09T10:07:30;16.30;99.90
37410;DHT22;23275;48.914;12.566;2022-09-09T10:09:58;16.20;99.90
37410;DHT22;23275;48.914;12.566;2022-09-09T10:12:49;16.00;99.90
37410;DHT22;23275;48.914;12.566;2022-09-09T10:27:22;16.20;99.90
37410;DHT22;23275;48.914;12.566;2022-09-09T10:32:26;16.40;99.90
37410;DHT22;23275;48.914;12.566;2022-09-09T10:41:00;16.60;99.90
37410;DHT22;23275;48.914;12.566;2022-09-09T10:46:45;16.80;99.90
37410;DHT22;23275;48.914;12.566;2022-09-09T10:49:31;16.80;99.90
37410;DHT22;23275;48.914;12.566;2022-09-09T10:52:32;16.80;99.90
37410;DHT22;23275;48.914;12.566;2022-09-09T10:55:17;16.70;99.90
37410;DHT22;23275;48.914;12.566;2022-09-09T10:57:47;16.70;99.90
37410;DHT22;23275;48.914;12.566;2022-09-09T11:02:42;16.60;99.90
37410;DHT22;23275;48.914;12.566;2022-09-09T11:05:31;16.60;99.90
37410;DHT22;23275;48.914;12.566;2022-09-09T11:08:14;16.60;99.90
37410;DHT22;23275;48.914;12.566;2022-09-09T11:13:25;16.80;99.90
37410;DHT22;23275;48.914;12.566;2022-09-09T11:15:57;16.80;99.90
37410;DHT22;23275;48.914;12.566;2022-09-09T11:18:25;16.80;99.90
37410;DHT22;23275;48.914;12.566;2022-09-09T11:20:56;16.80;99.90
37410;DHT22;23275;48.914;12.566;2022-09-09T11:23:45;16.80;99.90
37410;DHT22;23275;48.914;12.566;2022-09-09T11:26:27;16.90;99.90
37410;DHT22;23275;48.914;12.566;2022-09-09T11:40:23;18.20;99.90
37410;DHT22;23275;48.914;12.566;2022-09-09T11:42:49;18.30;99.90
37410;DHT22;23275;48.914;12.566;2022-09-09T11:45:28;18.40;99.90
37410;DHT22;23275;48.914;12.566;2022-09-09T11:47:59;18.50;99.90
37410;DHT22;23275;48.914;12.566;2022-09-09T11:53:02;18.40;99.90
37410;DHT22;23275;48.914;12.566;2022-09-09T11:55:30;18.40;99.90
37410;DHT22;23275;48.914;12.566;2022-09-09T11:58:05;18.50;99.90
37410;DHT22;23275;48.914;12.566;2022-09-09T12:00:45;18.70;99.90
37410;DHT22;23275;48.914;12.566;2022-09-09T12:03:41;18.70;99.90
37410;DHT22;23275;48.914;12.566;2022-09-09T12:06:33;18.90;99.90
37410;DHT22;23275;48.914;12.566;2022-09-09T12:09:12;18.70;99.90
37410;DHT22;23275;48.914;12.566;2022-09-09T12:11:41;18.80;99.90
37410;DHT22;23275;48.914;12.566;2022-09-09T12:14:20;18.70;99.90
37410;DHT22;23275;48.914;12.566;2022-09-09T12:16:46;18.60;99.90
37410;DHT22;23275;48.914;12.566;2022-09-09T12:19:14;18.60;99.90
37410;DHT22;23275;48.914;12.566;2022-09-09T12:22:04;18.60;99.90
37410;DHT22;23275;48.914;12.566;2022-09-09T12:27:24;19.10;99.90
37410;DHT22;23275;48.914;12.566;2022-09-09T12:30:03;19.20;99.90
37410;DHT22;23275;48.914;12.566;2022-09-09T12:32:30;19.20;99.90
37410;DHT22;23275;48.914;12.566;2022-09-09T12:35:02;19.30;99.90
37410;DHT22;23275;48.914;12.566;2022-09-09T12:37:50;19.30;99.90
37410;DHT22;23275;48.914;12.566;2022-09-09T12:42:46;19.40;99.90
37410;DHT22;23275;48.914;12.566;2022-09-09T12:45:20;19.60;99.90
37410;DHT22;23275;48.914;12.566;2022-09-09T12:50:26;19.80;99.90
37410;DHT22;23275;48.914;12.566;2022-09-09T12:53:01;20.00;99.90
37410;DHT22;23275;48.914;12.566;2022-09-09T12:55:35;20.10;99.90
37410;DHT22;23275;48.914;12.566;2022-09-09T12:58:01;20.00;99.90
37410;DHT22;23275;48.914;12.566;2022-09-09T13:00:31;20.00;99.90
37410;DHT22;23275;48.914;12.566;2022-09-09T13:02:59;20.00;99.90
37410;DHT22;23275;48.914;12.566;2022-09-09T13:05:31;19.90;99.90
37410;DHT22;23275;48.914;12.566;2022-09-09T13:08:09;20.00;99.90
37410;DHT22;23275;48.914;12.566;2022-09-09T13:10:49;19.90;99.90
37410;DHT22;23275;48.914;12.566;2022-09-09T13:13:21;19.80;99.90
37410;DHT22;23275;48.914;12.566;2022-09-09T13:15:52;19.70;99.90
37410;DHT22;23275;48.914;12.566;2022-09-09T13:18:22;19.70;99.90
37410;DHT22;23275;48.914;12.566;2022-09-09T13:20:49;19.80;99.90
37410;DHT22;23275;48.914;12.566;2022-09-09T13:23:15;19.80;99.90
37410;DHT22;23275;48.914;12.566;2022-09-09T13:25:54;19.60;99.90
37410;DHT22;23275;48.914;12.566;2022-09-09T13:28:22;19.40;99.90
37410;DHT22;23275;48.914;12.566;2022-09-09T13:31:03;19.20;99.90
37410;DHT22;23275;48.914;12.566;2022-09-09T13:33:30;19.20;99.90
37410;DHT22;23275;48.914;12.566;2022-09-09T13:36:07;19.40;99.90
37410;DHT22;23275;48.914;12.566;2022-09-09T13:41:33;19.60;99.90
37410;DHT22;23275;48.914;12.566;2022-09-09T13:44:00;19.50;99.90
37410;DHT22;23275;48.914;12.566;2022-09-09T13:46:31;19.40;99.90
37410;DHT22;23275;48.914;12.566;2022-09-09T13:48:58;19.50;99.90
37410;DHT22;23275;48.914;12.566;2022-09-09T13:51:36;19.60;99.90
37410;DHT22;23275;48.914;12.566;2022-09-09T13:54:06;19.90;99.90
37410;DHT22;23275;48.914;12.566;2022-09-09T13:56:34;20.10;99.90
37410;DHT22;23275;48.914;12.566;2022-09-09T13:59:00;20.20;99.90
37410;DHT22;23275;48.914;12.566;2022-09-09T14:01:27;20.10;99.90
37410;DHT22;23275;48.914;12.566;2022-09-09T14:03:53;20.20;99.90
37410;DHT22;23275;48.914;12.566;2022-09-09T14:06:18;20.00;99.90
37410;DHT22;23275;48.914;12.566;2022-09-09T14:08:44;20.10;99.90
37410;DHT22;23275;48.914;12.566;2022-09-09T14:11:12;20.10;99.90
37410;DHT22;23275;48.914;12.566;2022-09-09T14:13:38;20.00;99.90
37410;DHT22;23275;48.914;12.566;2022-09-09T14:16:04;20.10;99.90
37410;DHT22;23275;48.914;12.566;2022-09-09T14:18:30;20.00;99.90
37410;DHT22;23275;48.914;12.566;2022-09-09T14:20:55;19.80;99.90
37410;DHT22;23275;48.914;12.566;2022-09-09T14:23:22;19.80;99.90
37410;DHT22;23275;48.914;12.566;2022-09-09T14:25:48;19.90;99.90
37410;DHT22;23275;48.914;12.566;2022-09-09T14:28:14;19.90;99.90
37410;DHT22;23275;48.914;12.566;2022-09-09T14:30:41;19.80;99.90
37410;DHT22;23275;48.914;12.566;2022-09-09T14:33:12;19.80;99.90
37410;DHT22;23275;48.914;12.566;2022-09-09T14:35:38;19.80;99.90
37410;DHT22;23275;48.914;12.566;2022-09-09T14:38:04;19.80;99.90
37410;DHT22;23275;48.914;12.566;2022-09-09T14:40:31;19.70;99.90
37410;DHT22;23275;48.914;12.566;2022-09-09T14:42:56;19.60;99.90
37410;DHT22;23275;48.914;12.566;2022-09-09T14:45:23;19.50;99.90
37410;DHT22;23275;48.914;12.566;2022-09-09T14:47:50;19.50;99.90
37410;DHT22;23275;48.914;12.566;2022-09-09T14:50:16;19.60;99.90
37410;DHT22;23275;48.914;12.566;2022-09-09T14:52:42;19.70;99.90
37410;DHT22;23275;48.914;12.566;2022-09-09T14:55:07;19.70;99.90
37410;DHT22;23275;48.914;12.566;2022-09-09T14:57:33;19.70;99.90
37410;DHT22;23275;48.914;12.566;2022-09-09T15:00:02;19.60;99.90
37410;DHT22;23275;48.914;12.566;2022-09-09T15:02:27;19.60;99.90
37410;DHT22;23275;48.914;12.566;2022-09-09T15:04:55;19.50;99.90
37410;DHT22;23275;48.914;12.566;2022-09-09T15:07:23;19.50;99.90
37410;DHT22;23275;48.914;12.566;2022-09-09T15:09:49;19.50;99.90
37410;DHT22;23275;48.914;12.566;2022-09-09T15:12:15;19.40;99.90
37410;DHT22;23275;48.914;12.566;2022-09-09T15:14:41;19.50;99.90
37410;DHT22;23275;48.914;12.566;2022-09-09T15:17:06;19.50;99.90
37410;DHT22;23275;48.914;12.566;2022-09-09T15:19:32;19.50;99.90
37410;DHT22;23275;48.914;12.566;2022-09-09T15:21:57;19.40;99.90
37410;DHT22;23275;48.914;12.566;2022-09-09T15:24:25;19.40;99.90
37410;DHT22;23275;48.914;12.566;2022-09-09T15:26:52;19.40;99.90
37410;DHT22;23275;48.914;12.566;2022-09-09T15:29:17;19.40;99.90
37410;DHT22;23275;48.914;12.566;2022-09-09T15:31:44;19.40;99.90
37410;DHT22;23275;48.914;12.566;2022-09-09T15:34:09;19.50;99.90
37410;DHT22;23275;48.914;12.566;2022-09-09T15:36:37;19.50;99.90
37410;DHT22;23275;48.914;12.566;2022-09-09T15:39:05;19.50;99.90
37410;DHT22;23275;48.914;12.566;2022-09-09T15:41:31;19.50;99.90
37410;DHT22;23275;48.914;12.566;2022-09-09T15:43:57;19.50;99.90
37410;DHT22;23275;48.914;12.566;2022-09-09T15:46:32;19.40;99.90
37410;DHT22;23275;48.914;12.566;2022-09-09T15:51:28;19.30;99.90
37410;DHT22;23275;48.914;12.566;2022-09-09T15:53:55;19.10;99.90
37410;DHT22;23275;48.914;12.566;2022-09-09T15:56:21;19.00;99.90
37410;DHT22;23275;48.914;12.566;2022-09-09T15:58:47;18.90;99.90
37410;DHT22;23275;48.914;12.566;2022-09-09T16:01:13;18.80;99.90
37410;DHT22;23275;48.914;12.566;2022-09-09T16:03:40;18.80;99.90
37410;DHT22;23275;48.914;12.566;2022-09-09T16:06:16;18.70;99.90
37410;DHT22;23275;48.914;12.566;2022-09-09T16:08:44;18.70;99.90
37410;DHT22;23275;48.914;12.566;2022-09-09T16:11:15;18.60;99.90
37410;DHT22;23275;48.914;12.566;2022-09-09T16:13:44;18.60;99.90
37410;DHT22;23275;48.914;12.566;2022-09-09T16:16:14;18.60;99.90
37410;DHT22;23275;48.914;12.566;2022-09-09T16:18:44;18.60;99.90
37410;DHT22;23275;48.914;12.566;2022-09-09T16:21:27;18.50;99.90
37410;DHT22;23275;48.914;12.566;2022-09-09T16:23:55;18.50;99.90
37410;DHT22;23275;48.914;12.566;2022-09-09T16:26:22;18.40;99.90
37410;DHT22;23275;48.914;12.566;2022-09-09T16:28:49;18.30;99.90
37410;DHT22;23275;48.914;12.566;2022-09-09T16:31:19;18.20;99.90
37410;DHT22;23275;48.914;12.566;2022-09-09T16:33:46;18.20;99.90
37410;DHT22;23275;48.914;12.566;2022-09-09T16:36:24;18.10;99.90
37410;DHT22;23275;48.914;12.566;2022-09-09T16:38:54;18.10;99.90
37410;DHT22;23275;48.914;12.566;2022-09-09T16:41:23;18.00;99.90
37410;DHT22;23275;48.914;12.566;2022-09-09T16:43:56;18.00;99.90
37410;DHT22;23275;48.914;12.566;2022-09-09T16:46:22;18.00;99.90
37410;DHT22;23275;48.914;12.566;2022-09-09T16:48:50;17.90;99.90
37410;DHT22;23275;48.914;12.566;2022-09-09T16:51:30;17.90;99.90
37410;DHT22;23275;48.914;12.566;2022-09-09T16:53:59;17.90;99.90
37410;DHT22;23275;48.914;12.566;2022-09-09T16:56:27;17.90;99.90
37410;DHT22;23275;48.914;12.566;2022-09-09T16:58:58;17.90;99.90
37410;DHT22;23275;48.914;12.566;2022-09-09T17:01:26;17.90;99.90
37410;DHT22;23275;48.914;12.566;2022-09-09T17:03:58;17.90;99.90
37410;DHT22;23275;48.914;12.566;2022-09-09T17:06:26;17.90;99.90
37410;DHT22;23275;48.914;12.566;2022-09-09T17:08:56;17.80;99.90
37410;DHT22;23275;48.914;12.566;2022-09-09T17:11:23;17.80;99.90
37410;DHT22;23275;48.914;12.566;2022-09-09T17:13:50;17.80;99.90
37410;DHT22;23275;48.914;12.566;2022-09-09T17:16:17;17.80;99.90
37410;DHT22;23275;48.914;12.566;2022-09-09T17:18:44;17.80;99.90
37410;DHT22;23275;48.914;12.566;2022-09-09T17:21:16;17.80;99.90
37410;DHT22;23275;48.914;12.566;2022-09-09T17:23:43;17.70;99.90
37410;DHT22;23275;48.914;12.566;2022-09-09T17:26:12;17.70;99.90
37410;DHT22;23275;48.914;12.566;2022-09-09T17:28:39;17.60;99.90
37410;DHT22;23275;48.914;12.566;2022-09-09T17:31:07;17.50;99.90
37410;DHT22;23275;48.914;12.566;2022-09-09T17:33:34;17.40;99.90
37410;DHT22;23275;48.914;12.566;2022-09-09T17:38:34;17.40;99.90
37410;DHT22;23275;48.914;12.566;2022-09-09T17:41:18;17.30;99.90
37410;DHT22;23275;48.914;12.566;2022-09-09T17:43:45;17.20;99.90
37410;DHT22;23275;48.914;12.566;2022-09-09T17:46:16;17.20;99.90